• Join FlightAware (Why Join?)
  • Login
  • US Flag 
12:31AM EDT


 

Airport Tracker/Info


-or-


 

Live Flight TrackerFlight Track Log ✈ SKW4664 ✈ 21-Jul-2013 ✈ KFSD - KMSP

Flight Track Log - Related Links

Times and Time Zones

All times are in EDT time to prevent confusion due to time zone crossing. See the SKW4664 flight status page for this flight to view local times or setup timezone preferences in your user account.

Time Position Orientation Groundspeed Altitude Reporting Facility
EDT Latitude Longitude Course Direction KTS MPH feet Rate Location/Type
12:40PM 43.5342 -96.7044 118° Southeast 236 272 4,300  Level Minneapolis Center
12:41PM 43.7283 -96.4517 51° Northeast  Level FlightAware Approximate
12:41PM 43.5739 -96.6258 55° Northeast 246 283 6,300  Level Minneapolis Center
12:42PM 43.7833 -96.3573 51° Northeast  Level FlightAware Approximate
12:42PM 43.6244 -96.5442 49° Northeast 264 304 8,600  Level Minneapolis Center
12:43PM 43.8375 -96.2619 53° Northeast  Level FlightAware Approximate
12:43PM 43.6875 -96.4394 50° Northeast 284 327 11,300  Level Minneapolis Center
12:44PM 43.8904 -96.1650 53° Northeast  Level FlightAware Approximate
12:44PM 43.7583 -96.3225 50° Northeast 315 362 13,400  Level Minneapolis Center
12:45PM 43.8181 -96.2244 50° Northeast 331 381 15,300 1,860 Climbing Minneapolis Center
12:46PM 43.8786 -96.1239 50° Northeast 339 390 17,300 1,920 Climbing Minneapolis Center
12:47PM 43.9508 -96.0044 50° Northeast 341 392 19,300 1,620 Climbing Minneapolis Center
12:48PM 44.0117 -95.9031 50° Northeast 344 396 20,700 1,140 Climbing Minneapolis Center
12:49PM 44.0744 -95.7978 50° Northeast 356 410 21,700 900 Climbing Minneapolis Center
12:50PM 44.1394 -95.6889 50° Northeast 365 420 22,800 540 Climbing Minneapolis Center
12:51PM 44.2208 -95.5519 50° Northeast 381 438 23,000 60 Climbing Minneapolis Center
12:52PM 44.2942 -95.4281 50° Northeast 406 467 23,000  Level Minneapolis Center
12:53PM 44.3708 -95.2564 58° Northeast 436 502 23,000  Level Minneapolis Center
12:55PM 44.4183 -95.0936 68° East 451 519 23,000 -1,200 Level Minneapolis Center
12:56PM 44.4781 -94.8986 67° East 455 524 20,400 -2,400 Descending Minneapolis Center
12:57PM 44.5250 -94.7417 67° East 445 512 18,100 -2,340 Descending Minneapolis Center
12:58PM 44.5678 -94.5897 68° East 398 458 15,600 -2,040 Descending Minneapolis Center
12:59PM 44.6053 -94.4606 68° East 358 412 14,000 -1,680 Descending Minneapolis Center
01:00PM 44.6419 -94.3386 67° East 340 391 12,200 -1,440 Descending Minneapolis Center
01:01PM 44.6825 -94.1961 68° East 327 376 11,000 -720 Descending Minneapolis Center
01:02PM 44.7092 -94.0892 71° East 293 337 10,800 -660 Descending Minneapolis Center
01:03PM 44.7308 -93.9819 74° East 285 328 9,700 -900 Descending Minneapolis Center
01:04PM 44.7458 -93.8822 78° East 261 300 9,000 -360 Descending Minneapolis Center
01:05PM 44.7606 -93.7853 78° East 256 295 9,000  Level Minneapolis Center
01:06PM 44.7744 -93.6850 79° East 262 302 9,000  Level Minneapolis Center
01:07PM 44.8083 -93.5706 67° East 266 306 9,000 -60 Level Minneapolis Center
01:08PM 44.8714 -93.5481 14° North 248 285 8,900 -540 Descending Minneapolis Center
01:09PM 44.9106 -93.6228 307° West 235 270 8,000 -480 Descending Minneapolis Center
01:10PM 44.9450 -93.7000 302° West 234 269 8,000 -300 Level Minneapolis Center
01:11PM 44.9992 -93.7217 344° North 244 281 7,500 -780 Descending Minneapolis Center
01:12PM 45.0250 -93.6531 62° Northeast 212 244 6,500 -1,020 Descending Minneapolis Center
01:13PM 45.0250 -93.5786 90° East 191 220 5,500 -780 Descending Minneapolis Center
01:14PM 45.0003 -93.4969 113° Southeast 189 217 5,000 -660 Descending Minneapolis Center
01:15PM 44.9736 -93.4322 120° Southeast 191 220 4,200 -960 Descending Minneapolis Center
01:16PM 44.9475 -93.3728 122° Southeast 181 208 3,100 -1,080 Descending Minneapolis Center